createdAt,value
2016-11-24T00:00:41.469Z,992.06
2016-11-24T00:01:41.497Z,992.06
2016-11-24T00:02:41.526Z,991.97
2016-11-24T00:03:41.557Z,991.87
2016-11-24T00:04:41.584Z,991.78
2016-11-24T00:05:41.613Z,991.77
2016-11-24T00:06:41.646Z,991.76
2016-11-24T00:07:41.671Z,991.89
2016-11-24T00:08:41.694Z,991.86
2016-11-24T00:09:41.723Z,992
2016-11-24T00:10:41.752Z,991.99
2016-11-24T00:11:41.780Z,992.02
2016-11-24T00:12:41.810Z,991.96
2016-11-24T00:13:41.834Z,991.91
2016-11-24T00:14:41.858Z,991.89
2016-11-24T00:15:41.896Z,991.91
2016-11-24T00:16:41.922Z,991.84
2016-11-24T00:17:41.953Z,991.82
2016-11-24T00:18:41.978Z,991.77
2016-11-24T00:19:42.007Z,991.73
2016-11-24T00:20:42.031Z,991.7
2016-11-24T00:21:42.063Z,991.74
2016-11-24T00:22:42.089Z,991.72
2016-11-24T00:23:42.121Z,991.77
2016-11-24T00:24:42.148Z,991.79
2016-11-24T00:25:42.169Z,991.83
2016-11-24T00:26:42.204Z,991.78
2016-11-24T00:27:42.229Z,991.77
2016-11-24T00:28:42.257Z,991.73
2016-11-24T00:29:42.286Z,991.73
2016-11-24T00:30:42.314Z,991.68
2016-11-24T00:31:42.343Z,991.67
2016-11-24T00:32:42.373Z,991.67
2016-11-24T00:33:42.397Z,991.66
2016-11-24T00:34:42.429Z,991.65
2016-11-24T00:35:42.455Z,991.66
2016-11-24T00:36:42.479Z,991.64
2016-11-24T00:37:42.511Z,991.64
2016-11-24T00:38:42.536Z,991.61
2016-11-24T00:39:42.569Z,991.66
2016-11-24T00:40:42.599Z,991.7
2016-11-24T00:41:42.623Z,991.66
2016-11-24T00:42:42.651Z,991.6
2016-11-24T00:43:42.676Z,991.63
2016-11-24T00:44:42.704Z,991.67
2016-11-24T00:45:42.735Z,991.62
2016-11-24T00:46:42.762Z,991.61
2016-11-24T00:47:42.791Z,991.65
2016-11-24T00:48:42.820Z,991.61
2016-11-24T00:49:42.848Z,991.66
2016-11-24T00:50:42.876Z,991.7
2016-11-24T00:51:42.901Z,991.66
2016-11-24T00:52:42.926Z,991.72
2016-11-24T00:53:42.959Z,991.75
2016-11-24T00:54:42.983Z,991.79
2016-11-24T00:55:43.016Z,991.76
2016-11-24T00:56:43.046Z,991.79
2016-11-24T00:57:43.068Z,991.8
2016-11-24T00:58:43.095Z,991.76
2016-11-24T00:59:43.128Z,991.75
2016-11-24T01:00:43.157Z,991.7
2016-11-24T01:01:43.185Z,991.73
2016-11-24T01:02:43.212Z,991.71
2016-11-24T01:03:43.242Z,991.76
2016-11-24T01:04:43.271Z,991.69
2016-11-24T01:05:43.291Z,991.7
2016-11-24T01:06:43.327Z,991.72
2016-11-24T01:07:43.349Z,991.67
2016-11-24T01:08:43.378Z,991.67
2016-11-24T01:09:43.403Z,991.64
2016-11-24T01:10:43.436Z,991.64
2016-11-24T01:11:43.464Z,991.6
2016-11-24T01:12:43.497Z,991.62
2016-11-24T01:13:43.522Z,991.61
2016-11-24T01:14:43.547Z,991.54
2016-11-24T01:15:43.576Z,991.52
2016-11-24T01:16:43.603Z,991.55
2016-11-24T01:17:43.633Z,991.56
2016-11-24T01:18:43.657Z,991.57
2016-11-24T01:19:43.686Z,991.58
2016-11-24T01:20:43.711Z,991.58
2016-11-24T01:21:43.744Z,991.56
2016-11-24T01:22:43.772Z,991.63
2016-11-24T01:23:43.797Z,991.6
2016-11-24T01:24:43.826Z,991.64
2016-11-24T01:25:43.855Z,991.59
2016-11-24T01:26:43.883Z,991.63
2016-11-24T01:27:43.908Z,991.64
2016-11-24T01:28:43.941Z,991.62
2016-11-24T01:29:43.970Z,991.64
2016-11-24T01:30:43.994Z,991.66
2016-11-24T01:31:44.023Z,991.71
2016-11-24T01:32:44.050Z,991.68
2016-11-24T01:33:44.075Z,991.71
2016-11-24T01:34:44.101Z,991.69
2016-11-24T01:35:44.134Z,991.66
2016-11-24T01:36:44.163Z,991.62
2016-11-24T01:37:44.187Z,991.63
2016-11-24T01:38:44.212Z,991.63
2016-11-24T01:39:44.245Z,991.61
2016-11-24T01:40:44.274Z,991.61
2016-11-24T01:41:44.302Z,991.6
2016-11-24T01:42:44.327Z,991.68
2016-11-24T01:43:44.362Z,991.7
2016-11-24T01:44:44.381Z,991.72
2016-11-24T01:45:44.413Z,991.73
2016-11-24T01:46:44.442Z,991.73
2016-11-24T01:47:44.467Z,991.73
2016-11-24T01:48:44.495Z,991.72
2016-11-24T01:49:44.525Z,991.7
2016-11-24T01:50:44.554Z,991.76
2016-11-24T01:51:44.580Z,991.72
2016-11-24T01:52:44.603Z,991.78
2016-11-24T01:53:44.635Z,991.73
2016-11-24T01:54:44.664Z,991.71
2016-11-24T01:55:44.692Z,991.72
2016-11-24T01:56:44.717Z,991.74
2016-11-24T01:57:44.738Z,991.79
2016-11-24T01:58:44.776Z,991.8
2016-11-24T01:59:44.800Z,991.86
2016-11-24T02:00:44.827Z,991.86
2016-11-24T02:01:44.862Z,991.86
2016-11-24T02:02:44.882Z,991.82
2016-11-24T02:03:44.912Z,991.82
2016-11-24T02:04:44.943Z,991.85
2016-11-24T02:05:44.972Z,991.85
2016-11-24T02:06:44.995Z,991.84
2016-11-24T02:07:45.020Z,991.78
2016-11-24T02:08:45.055Z,991.84
2016-11-24T02:09:45.087Z,991.85
2016-11-24T02:10:45.108Z,991.83
2016-11-24T02:11:45.138Z,991.83
2016-11-24T02:12:45.161Z,991.84
2016-11-24T02:13:45.194Z,991.83
2016-11-24T02:14:45.219Z,991.84
2016-11-24T02:15:45.248Z,991.85
2016-11-24T02:16:45.273Z,991.85
2016-11-24T02:17:45.301Z,991.82
2016-11-24T02:18:45.330Z,991.87
2016-11-24T02:19:45.356Z,991.86
2016-11-24T02:20:45.392Z,991.82
2016-11-24T02:21:45.412Z,991.86
2016-11-24T02:22:45.445Z,991.87
2016-11-24T02:23:45.470Z,991.85
2016-11-24T02:24:45.498Z,991.85
2016-11-24T02:25:45.523Z,991.84
2016-11-24T02:26:45.553Z,991.78
2016-11-24T02:27:45.577Z,991.83
2016-11-24T02:28:45.609Z,991.82
2016-11-24T02:29:45.634Z,991.86
2016-11-24T02:30:45.662Z,991.81
2016-11-24T02:31:45.691Z,991.87
2016-11-24T02:32:45.720Z,991.82
2016-11-24T02:33:45.745Z,991.81
2016-11-24T02:34:45.770Z,991.81
2016-11-24T02:35:45.803Z,991.8
2016-11-24T02:36:45.829Z,991.81
2016-11-24T02:37:45.856Z,991.8
2016-11-24T02:38:45.889Z,991.86
2016-11-24T02:39:45.914Z,991.81
2016-11-24T02:40:45.942Z,991.8
2016-11-24T02:41:45.968Z,991.81
2016-11-24T02:42:46.000Z,991.76
2016-11-24T02:43:46.028Z,991.77
2016-11-24T02:44:46.053Z,991.72
2016-11-24T02:45:46.078Z,991.68
2016-11-24T02:46:46.107Z,991.62
2016-11-24T02:47:46.139Z,991.6
2016-11-24T02:48:46.165Z,991.48
2016-11-24T02:49:46.189Z,991.49
2016-11-24T02:50:46.218Z,991.49
2016-11-24T02:51:46.248Z,991.44
2016-11-24T02:52:46.275Z,991.42
2016-11-24T02:53:46.304Z,991.4
2016-11-24T02:54:46.332Z,991.44
2016-11-24T02:55:46.362Z,991.43
2016-11-24T02:56:46.382Z,991.39
2016-11-24T02:57:46.411Z,991.39
2016-11-24T02:58:46.440Z,991.38
2016-11-24T02:59:46.473Z,991.35
2016-11-24T03:00:46.498Z,991.38
2016-11-24T03:01:46.523Z,991.35
2016-11-24T03:02:46.551Z,991.32
2016-11-24T03:03:46.580Z,991.29
2016-11-24T03:04:46.609Z,991.25
2016-11-24T03:05:46.638Z,991.26
2016-11-24T03:06:46.666Z,991.28
2016-11-24T03:07:46.691Z,991.25
2016-11-24T03:08:46.715Z,991.24
2016-11-24T03:09:46.745Z,991.23
2016-11-24T03:10:46.778Z,991.25
2016-11-24T03:11:46.801Z,991.22
2016-11-24T03:12:46.828Z,991.23
2016-11-24T03:13:46.856Z,991.22
2016-11-24T03:14:46.884Z,991.22
2016-11-24T03:15:46.908Z,991.18
2016-11-24T03:16:46.941Z,991.19
2016-11-24T03:17:46.965Z,991.16
2016-11-24T03:18:46.998Z,991.11
2016-11-24T03:19:47.020Z,991.12
2016-11-24T03:20:47.048Z,991.11
2016-11-24T03:21:47.081Z,991.13
2016-11-24T03:22:47.098Z,991.14
2016-11-24T03:23:47.134Z,991.11
2016-11-24T03:24:47.163Z,991.14
2016-11-24T03:25:47.192Z,991.16
2016-11-24T03:26:47.216Z,991.07
2016-11-24T03:27:47.276Z,991.09
2016-11-24T03:28:47.270Z,991.13
2016-11-24T03:29:47.300Z,991.08
2016-11-24T03:30:47.327Z,991.17
2016-11-24T03:31:47.356Z,991.14
2016-11-24T03:32:47.389Z,991.14
2016-11-24T03:33:47.405Z,991.14
2016-11-24T03:34:47.431Z,991.14
2016-11-24T03:35:47.463Z,991.14
2016-11-24T03:36:47.493Z,991.12
2016-11-24T03:37:47.517Z,991.08
2016-11-24T03:38:47.549Z,991.06
2016-11-24T03:39:47.570Z,991.04
2016-11-24T03:40:47.603Z,991.05
2016-11-24T03:41:47.628Z,991.05
2016-11-24T03:42:47.657Z,991.09
2016-11-24T03:43:47.689Z,991.1
2016-11-24T03:44:47.714Z,991.13
2016-11-24T03:45:47.743Z,991.14
2016-11-24T03:46:47.766Z,991.16
2016-11-24T03:47:47.792Z,991.17
2016-11-24T03:48:47.824Z,991.22
2016-11-24T03:49:47.856Z,991.16
2016-11-24T03:50:47.881Z,991.18
2016-11-24T03:51:47.903Z,991.14
2016-11-24T03:52:47.932Z,991.15
2016-11-24T03:53:47.960Z,991.18
2016-11-24T03:54:47.984Z,991.14
2016-11-24T03:55:48.022Z,991.13
2016-11-24T03:56:48.044Z,991.22
2016-11-24T03:57:48.075Z,991.17
2016-11-24T03:58:48.100Z,991.19
2016-11-24T03:59:48.126Z,991.18
2016-11-24T04:00:48.158Z,991.23
2016-11-24T04:01:48.179Z,991.18
2016-11-24T04:02:48.211Z,991.19
2016-11-24T04:03:48.236Z,991.19
2016-11-24T04:04:48.260Z,991.22
2016-11-24T04:05:48.289Z,991.18
2016-11-24T04:06:48.318Z,991.19
2016-11-24T04:07:48.351Z,991.2
2016-11-24T04:08:48.375Z,991.2
2016-11-24T04:09:48.396Z,991.22
2016-11-24T04:10:48.432Z,991.21
2016-11-24T04:11:48.461Z,991.2
2016-11-24T04:12:48.486Z,991.14
2016-11-24T04:13:48.516Z,991.15
2016-11-24T04:14:48.543Z,991.14
2016-11-24T04:15:48.568Z,991.14
2016-11-24T04:16:48.593Z,991.09
2016-11-24T04:17:48.622Z,991.18
2016-11-24T04:18:48.651Z,991.14
2016-11-24T04:19:48.680Z,991.11
2016-11-24T04:20:48.705Z,991.1
2016-11-24T04:21:48.737Z,991.09
2016-11-24T04:22:48.761Z,991.1
2016-11-24T04:23:48.791Z,991.09
2016-11-24T04:24:48.815Z,991.05
2016-11-24T04:25:48.844Z,991.07
2016-11-24T04:26:48.867Z,991.08
2016-11-24T04:27:48.898Z,991.08
2016-11-24T04:28:48.926Z,991.08
2016-11-24T04:29:48.951Z,991.07
2016-11-24T04:30:48.976Z,991.06
2016-11-24T04:31:49.009Z,991.09
2016-11-24T04:32:49.037Z,991.03
2016-11-24T04:33:49.061Z,991.06
2016-11-24T04:34:49.094Z,991.11
2016-11-24T04:35:49.119Z,991.06
2016-11-24T04:36:49.144Z,991.1
2016-11-24T04:37:49.175Z,991.07
2016-11-24T04:38:49.197Z,991.11
2016-11-24T04:39:49.226Z,991.14
2016-11-24T04:40:49.255Z,991.15
2016-11-24T04:41:49.281Z,991.15
2016-11-24T04:42:49.317Z,991.2
2016-11-24T04:43:49.341Z,991.27
2016-11-24T04:44:49.357Z,991.27
2016-11-24T04:45:49.390Z,991.32
2016-11-24T04:46:49.421Z,991.3
2016-11-24T04:47:49.448Z,991.32
2016-11-24T04:48:49.477Z,991.3
2016-11-24T04:49:49.507Z,991.26
2016-11-24T04:50:49.530Z,991.27
2016-11-24T04:51:49.564Z,991.29
2016-11-24T04:52:49.584Z,991.33
2016-11-24T04:53:49.613Z,991.33
2016-11-24T04:54:49.637Z,991.33
2016-11-24T04:55:49.670Z,991.33
2016-11-24T04:56:49.696Z,991.35
2016-11-24T04:57:49.719Z,991.36
2016-11-24T04:58:49.749Z,991.31
2016-11-24T04:59:49.781Z,991.37
2016-11-24T05:00:49.802Z,991.37
2016-11-24T05:01:49.831Z,991.37
2016-11-24T05:02:49.859Z,991.38
2016-11-24T05:03:49.888Z,991.36
2016-11-24T05:04:49.912Z,991.37
2016-11-24T05:05:49.937Z,991.33
2016-11-24T05:06:49.966Z,991.32
2016-11-24T05:07:49.992Z,991.31
2016-11-24T05:08:50.027Z,991.31
2016-11-24T05:09:50.051Z,991.33
2016-11-24T05:10:50.078Z,991.29
2016-11-24T05:11:50.108Z,991.28
2016-11-24T05:12:50.129Z,991.27
2016-11-24T05:13:50.158Z,991.23
2016-11-24T05:14:50.191Z,991.19
2016-11-24T05:15:50.215Z,991.23
2016-11-24T05:16:50.246Z,991.17
2016-11-24T05:17:50.268Z,991.1
2016-11-24T05:18:50.293Z,991.08
2016-11-24T05:19:50.322Z,991.09
2016-11-24T05:20:50.354Z,991.15
2016-11-24T05:21:50.375Z,991.12
2016-11-24T05:22:50.410Z,991.11
2016-11-24T05:23:50.436Z,991.09
2016-11-24T05:24:50.461Z,991.14
2016-11-24T05:25:50.489Z,991.08
2016-11-24T05:26:50.514Z,991.11
2016-11-24T05:27:50.544Z,991.06
2016-11-24T05:28:50.567Z,991.03
2016-11-24T05:29:50.601Z,991.03
2016-11-24T05:30:50.621Z,991.09
2016-11-24T05:31:50.650Z,991.04
2016-11-24T05:32:50.682Z,991.01
2016-11-24T05:33:50.707Z,991.08
2016-11-24T05:34:50.736Z,991.05
2016-11-24T05:35:50.764Z,990.98
2016-11-24T05:36:50.789Z,991.07
2016-11-24T05:37:50.811Z,991.03
2016-11-24T05:38:50.848Z,991.03
2016-11-24T05:39:50.871Z,991.02
2016-11-24T05:40:50.900Z,991.03
2016-11-24T05:41:50.929Z,990.99
2016-11-24T05:42:50.949Z,990.96
2016-11-24T05:43:50.978Z,991.02
2016-11-24T05:44:51.011Z,990.99
2016-11-24T05:45:51.032Z,990.96
2016-11-24T05:46:51.064Z,990.99
2016-11-24T05:47:51.090Z,991
2016-11-24T05:48:51.120Z,990.96
2016-11-24T05:49:51.148Z,990.97
2016-11-24T05:50:51.172Z,990.92
2016-11-24T05:51:51.195Z,990.85
2016-11-24T05:52:51.226Z,990.92
2016-11-24T05:53:51.257Z,990.93
2016-11-24T05:54:51.278Z,990.9
2016-11-24T05:55:51.311Z,990.98
2016-11-24T05:56:51.339Z,990.93
2016-11-24T05:57:51.356Z,990.96
2016-11-24T05:58:51.390Z,990.96
2016-11-24T05:59:51.418Z,991.03
2016-11-24T06:00:51.447Z,990.98
2016-11-24T06:01:51.475Z,990.9
2016-11-24T06:02:51.504Z,990.95
2016-11-24T06:03:51.532Z,990.88
2016-11-24T06:04:51.553Z,990.85
2016-11-24T06:05:51.586Z,990.86
2016-11-24T06:06:51.615Z,990.8
2016-11-24T06:07:51.635Z,990.84
2016-11-24T06:08:51.665Z,990.9
2016-11-24T06:09:51.697Z,990.81
2016-11-24T06:10:51.722Z,990.91
2016-11-24T06:11:51.747Z,990.9
2016-11-24T06:12:51.780Z,990.92
2016-11-24T06:13:51.806Z,990.92
2016-11-24T06:14:51.833Z,990.99
2016-11-24T06:15:51.856Z,990.96
2016-11-24T06:16:51.887Z,991.02
2016-11-24T06:17:51.907Z,991.04
2016-11-24T06:18:51.944Z,991.01
2016-11-24T06:19:51.964Z,990.98
2016-11-24T06:20:51.998Z,990.97
2016-11-24T06:21:52.023Z,991.02
2016-11-24T06:22:52.051Z,991
2016-11-24T06:23:52.075Z,990.98
2016-11-24T06:24:52.109Z,990.92
2016-11-24T06:25:52.137Z,991.01
2016-11-24T06:26:52.166Z,991
2016-11-24T06:27:52.187Z,991.02
2016-11-24T06:28:52.219Z,991.08
2016-11-24T06:29:52.245Z,991.13
2016-11-24T06:30:52.273Z,991.17
2016-11-24T06:31:52.303Z,991.2
2016-11-24T06:32:52.326Z,991.17
2016-11-24T06:33:52.356Z,991.17
2016-11-24T06:34:52.381Z,991.21
2016-11-24T06:35:52.404Z,991.11
2016-11-24T06:36:52.436Z,991.08
2016-11-24T06:37:52.463Z,991.14
2016-11-24T06:38:52.491Z,991.1
2016-11-24T06:39:52.519Z,991.16
2016-11-24T06:40:52.552Z,991.16
2016-11-24T06:41:52.577Z,991.2
2016-11-24T06:42:52.605Z,991.27
2016-11-24T06:43:52.630Z,991.23
2016-11-24T06:44:52.655Z,991.26
2016-11-24T06:45:52.684Z,991.21
2016-11-24T06:46:52.717Z,991.21
2016-11-24T06:47:52.745Z,991.17
2016-11-24T06:48:52.767Z,991.16
2016-11-24T06:49:52.799Z,991.18
2016-11-24T06:50:52.827Z,991.11
2016-11-24T06:51:52.846Z,991.18
2016-11-24T06:52:52.877Z,991.19
2016-11-24T06:53:52.906Z,991.17
2016-11-24T06:54:52.932Z,991.19
2016-11-24T06:55:52.971Z,991.25
2016-11-24T06:56:52.992Z,991.26
2016-11-24T06:57:53.018Z,991.21
2016-11-24T06:58:53.046Z,991.22
2016-11-24T06:59:53.071Z,991.22
2016-11-24T07:00:53.103Z,991.18
2016-11-24T07:01:53.128Z,991.22
2016-11-24T07:02:53.157Z,991.24
2016-11-24T07:03:53.186Z,991.23
2016-11-24T07:04:53.211Z,991.25
2016-11-24T07:05:53.234Z,991.25
2016-11-24T07:06:53.268Z,991.28
2016-11-24T07:07:53.292Z,991.38
2016-11-24T07:08:53.326Z,991.34
2016-11-24T07:09:53.354Z,991.35
2016-11-24T07:10:53.383Z,991.35
2016-11-24T07:11:53.403Z,991.33
2016-11-24T07:12:53.437Z,991.39
2016-11-24T07:13:53.465Z,991.29
2016-11-24T07:14:53.487Z,991.34
2016-11-24T07:15:53.515Z,991.36
2016-11-24T07:16:53.543Z,991.35
2016-11-24T07:17:53.577Z,991.39
2016-11-24T07:18:53.595Z,991.47
2016-11-24T07:19:53.626Z,991.4
2016-11-24T07:20:53.655Z,991.47
2016-11-24T07:21:53.687Z,991.45
2016-11-24T07:22:53.708Z,991.51
2016-11-24T07:23:53.745Z,991.61
2016-11-24T07:24:53.770Z,991.49
2016-11-24T07:25:53.798Z,991.53
2016-11-24T07:26:53.824Z,991.54
2016-11-24T07:27:53.847Z,991.63
2016-11-24T07:28:53.882Z,991.65
2016-11-24T07:29:53.910Z,991.61
2016-11-24T07:30:53.935Z,991.67
2016-11-24T07:31:53.967Z,991.62
2016-11-24T07:32:53.992Z,991.63
2016-11-24T07:33:54.021Z,991.68
2016-11-24T07:34:54.054Z,991.61
2016-11-24T07:35:54.079Z,991.7
2016-11-24T07:36:54.101Z,991.72
2016-11-24T07:37:54.127Z,991.73
2016-11-24T07:38:54.161Z,991.72
2016-11-24T07:39:54.185Z,991.63
2016-11-24T07:40:54.210Z,991.78
2016-11-24T07:41:54.239Z,991.74
2016-11-24T07:42:54.264Z,991.74
2016-11-24T07:43:54.297Z,991.71
2016-11-24T07:44:54.325Z,991.74
2016-11-24T07:45:54.353Z,991.87
2016-11-24T07:46:54.383Z,991.86
2016-11-24T07:47:54.403Z,991.85
2016-11-24T07:48:54.440Z,991.83
2016-11-24T07:49:54.465Z,991.87
2016-11-24T07:50:54.493Z,991.89
2016-11-24T07:51:54.521Z,991.96
2016-11-24T07:52:54.552Z,991.88
2016-11-24T07:53:54.580Z,991.92
2016-11-24T07:54:54.600Z,991.91
2016-11-24T07:55:54.633Z,991.97
2016-11-24T07:56:54.658Z,991.95
2016-11-24T07:57:54.685Z,991.96
2016-11-24T07:58:54.716Z,991.94
2016-11-24T07:59:54.744Z,992.06
2016-11-24T08:00:54.773Z,992.01
2016-11-24T08:01:54.803Z,992.08
2016-11-24T08:02:54.826Z,992.07
2016-11-24T08:03:54.851Z,992.08
2016-11-24T08:04:54.881Z,992.15
2016-11-24T08:05:54.914Z,992.18
2016-11-24T08:06:54.935Z,992.2
2016-11-24T08:07:54.961Z,992.24
2016-11-24T08:08:54.991Z,992.21
2016-11-24T08:09:55.024Z,992.29
2016-11-24T08:10:55.053Z,992.22
2016-11-24T08:11:55.081Z,992.26
2016-11-24T08:12:55.106Z,992.19
2016-11-24T08:13:55.134Z,992.19
2016-11-24T08:14:55.163Z,992.2
2016-11-24T08:15:55.188Z,992.18
2016-11-24T08:16:55.217Z,992.14
2016-11-24T08:17:55.237Z,992.19
2016-11-24T08:18:55.274Z,992.05
2016-11-24T08:19:55.302Z,992.12
2016-11-24T08:20:55.330Z,992.1
2016-11-24T08:21:55.352Z,992.16
2016-11-24T08:22:55.386Z,992.08
2016-11-24T08:23:55.414Z,992.22
2016-11-24T08:24:55.440Z,992.08
2016-11-24T08:25:55.468Z,992.13
2016-11-24T08:26:55.494Z,992.12
2016-11-24T08:27:55.521Z,992.18
2016-11-24T08:28:55.552Z,992.15
2016-11-24T08:29:55.578Z,992.08
2016-11-24T08:30:55.604Z,992.08
2016-11-24T08:31:55.634Z,992.13
2016-11-24T08:32:55.656Z,992.1
2016-11-24T08:33:55.686Z,992.08
2016-11-24T08:34:55.718Z,992.12
2016-11-24T08:35:55.744Z,992.13
2016-11-24T08:36:55.767Z,992.13
2016-11-24T08:37:55.797Z,992.05
2016-11-24T08:38:55.825Z,991.99
2016-11-24T08:39:55.853Z,992.05
2016-11-24T08:40:55.882Z,992.06
2016-11-24T08:41:55.909Z,992.12
2016-11-24T08:42:55.940Z,992.01
2016-11-24T08:43:55.965Z,992.11
2016-11-24T08:44:55.998Z,992.02
2016-11-24T08:45:56.022Z,992.05
2016-11-24T08:46:56.051Z,992.01
2016-11-24T08:47:56.075Z,992.03
2016-11-24T08:48:56.105Z,992.04
2016-11-24T08:49:56.133Z,992.08
2016-11-24T08:50:56.158Z,992.13
2016-11-24T08:51:56.185Z,992.12
2016-11-24T08:52:56.215Z,992.16
2016-11-24T08:53:56.240Z,992.08
2016-11-24T08:54:56.267Z,992.13
2016-11-24T08:55:56.302Z,992.14
2016-11-24T08:56:56.326Z,992.13
2016-11-24T08:57:56.355Z,992.12
2016-11-24T08:58:56.384Z,992.17
2016-11-24T08:59:56.408Z,992.09
2016-11-24T09:00:56.437Z,992.14
2016-11-24T09:01:56.465Z,992.16
2016-11-24T09:02:56.496Z,992.18
2016-11-24T09:03:56.520Z,992.13
2016-11-24T09:04:56.552Z,992.19
2016-11-24T09:05:56.581Z,992.22
2016-11-24T09:06:56.605Z,992.28
2016-11-24T09:07:56.635Z,992.29
2016-11-24T09:08:56.659Z,992.25
2016-11-24T09:09:56.691Z,992.31
2016-11-24T09:10:56.713Z,992.3
2016-11-24T09:11:56.742Z,992.37
2016-11-24T09:12:56.770Z,992.41
2016-11-24T09:13:56.802Z,992.42
2016-11-24T09:14:56.827Z,992.45
2016-11-24T09:15:56.856Z,992.44
2016-11-24T09:16:56.880Z,992.46
2016-11-24T09:17:56.909Z,992.52
2016-11-24T09:18:56.941Z,992.46
2016-11-24T09:19:56.966Z,992.55
2016-11-24T09:20:56.990Z,992.6
2016-11-24T09:21:57.019Z,992.65
2016-11-24T09:22:57.052Z,992.59
2016-11-24T09:23:57.077Z,992.6
2016-11-24T09:24:57.100Z,992.66
2016-11-24T09:25:57.130Z,992.65
2016-11-24T09:26:57.158Z,992.68
2016-11-24T09:27:57.187Z,992.73
2016-11-24T09:28:57.212Z,992.75
2016-11-24T09:29:57.240Z,992.75
2016-11-24T09:30:57.273Z,992.75
2016-11-24T09:31:57.299Z,992.68
2016-11-24T09:32:57.326Z,992.71
2016-11-24T09:33:57.351Z,992.65
2016-11-24T09:34:57.380Z,992.67
2016-11-24T09:35:57.410Z,992.62
2016-11-24T09:36:57.442Z,992.67
2016-11-24T09:37:57.466Z,992.66
2016-11-24T09:38:57.495Z,992.59
2016-11-24T09:39:57.520Z,992.68
2016-11-24T09:40:57.551Z,992.66
2016-11-24T09:41:57.573Z,992.65
2016-11-24T09:42:57.601Z,992.72
2016-11-24T09:43:57.632Z,992.68
2016-11-24T09:44:57.660Z,992.74
2016-11-24T09:45:57.692Z,992.77
2016-11-24T09:46:57.716Z,992.72
2016-11-24T09:47:57.741Z,992.72
2016-11-24T09:48:57.774Z,992.71
2016-11-24T09:49:57.799Z,992.76
2016-11-24T09:50:57.832Z,992.72
2016-11-24T09:51:57.852Z,992.75
2016-11-24T09:52:57.884Z,992.73
2016-11-24T09:53:57.914Z,992.73
2016-11-24T09:54:57.942Z,992.76
2016-11-24T09:55:57.968Z,992.77
2016-11-24T09:56:57.991Z,992.82
2016-11-24T09:57:58.019Z,992.79
2016-11-24T09:58:58.053Z,992.75
2016-11-24T09:59:58.076Z,992.73
2016-11-24T10:00:58.107Z,992.75
2016-11-24T10:01:58.131Z,992.71
2016-11-24T10:02:58.163Z,992.7
2016-11-24T10:03:58.192Z,992.71
2016-11-24T10:04:58.217Z,992.69
2016-11-24T10:05:58.250Z,992.68
2016-11-24T10:06:58.275Z,992.69
2016-11-24T10:07:58.299Z,992.7
2016-11-24T10:08:58.332Z,992.68
2016-11-24T10:09:58.351Z,992.74
2016-11-24T10:10:58.389Z,992.67
2016-11-24T10:11:58.414Z,992.78
2016-11-24T10:12:58.445Z,992.75
2016-11-24T10:13:58.468Z,992.78
2016-11-24T10:14:58.501Z,992.78
2016-11-24T10:15:58.525Z,992.88
2016-11-24T10:16:58.558Z,992.84
2016-11-24T10:17:58.582Z,992.82
2016-11-24T10:18:58.611Z,992.85
2016-11-24T10:19:58.640Z,992.81
2016-11-24T10:20:58.664Z,992.81
2016-11-24T10:21:58.693Z,992.82
2016-11-24T10:22:58.726Z,992.78
2016-11-24T10:23:58.757Z,992.74
2016-11-24T10:24:58.780Z,992.73
2016-11-24T10:25:58.804Z,992.69
2016-11-24T10:26:58.833Z,992.65
2016-11-24T10:27:58.867Z,992.61
2016-11-24T10:28:58.896Z,992.66
2016-11-24T10:29:58.922Z,992.61
2016-11-24T10:30:58.944Z,992.67
2016-11-24T10:31:58.972Z,992.7
2016-11-24T10:32:59.004Z,992.59
2016-11-24T10:33:59.034Z,992.63
2016-11-24T10:34:59.060Z,992.66
2016-11-24T10:35:59.098Z,992.53
2016-11-24T10:36:59.119Z,992.49
2016-11-24T10:37:59.149Z,992.49
2016-11-24T10:38:59.174Z,992.39
2016-11-24T10:39:59.197Z,992.46
2016-11-24T10:40:59.227Z,992.43
2016-11-24T10:41:59.253Z,992.48
2016-11-24T10:42:59.288Z,992.45
2016-11-24T10:43:59.316Z,992.46
2016-11-24T10:44:59.340Z,992.41
2016-11-24T10:45:59.369Z,992.4
2016-11-24T10:46:59.399Z,992.41
2016-11-24T10:47:59.424Z,992.38
2016-11-24T10:48:59.452Z,992.38
2016-11-24T10:49:59.483Z,992.31
2016-11-24T10:50:59.508Z,992.31
2016-11-24T10:51:59.548Z,992.29
2016-11-24T10:52:59.566Z,992.34
2016-11-24T10:53:59.595Z,992.33
2016-11-24T10:54:59.620Z,992.26
2016-11-24T10:55:59.649Z,992.31
2016-11-24T10:56:59.680Z,992.35
2016-11-24T10:57:59.707Z,992.3
2016-11-24T10:58:59.734Z,992.29
2016-11-24T10:59:59.762Z,992.28
2016-11-24T11:00:59.791Z,992.27
2016-11-24T11:01:59.821Z,992.25
2016-11-24T11:02:59.849Z,992.32
2016-11-24T11:03:59.874Z,992.31
2016-11-24T11:04:59.907Z,992.33
2016-11-24T11:05:59.930Z,992.35
2016-11-24T11:06:59.960Z,992.42
2016-11-24T11:07:59.991Z,992.42
2016-11-24T11:09:00.022Z,992.43
2016-11-24T11:10:00.046Z,992.49
2016-11-24T11:11:00.085Z,992.47
2016-11-24T11:12:00.103Z,992.49
2016-11-24T11:13:00.132Z,992.49
2016-11-24T11:14:00.156Z,992.52
2016-11-24T11:15:00.185Z,992.5
2016-11-24T11:16:00.217Z,992.45
2016-11-24T11:17:00.247Z,992.46
2016-11-24T11:18:00.275Z,992.46
2016-11-24T11:19:00.303Z,992.49
2016-11-24T11:20:00.332Z,992.48
2016-11-24T11:21:00.361Z,992.5
2016-11-24T11:22:00.386Z,992.53
2016-11-24T11:23:00.418Z,992.56
2016-11-24T11:24:00.439Z,992.57
2016-11-24T11:25:00.471Z,992.64
2016-11-24T11:26:00.501Z,992.57
2016-11-24T11:27:00.530Z,992.63
2016-11-24T11:28:00.559Z,992.62
2016-11-24T11:29:00.583Z,992.66
2016-11-24T11:30:00.611Z,992.69
2016-11-24T11:31:00.644Z,992.65
2016-11-24T11:32:00.668Z,992.66
2016-11-24T11:33:00.697Z,992.66
2016-11-24T11:34:00.727Z,992.71
2016-11-24T11:35:00.755Z,992.65
2016-11-24T11:36:00.780Z,992.75
2016-11-24T11:37:00.812Z,992.72
2016-11-24T11:38:00.839Z,992.71
2016-11-24T11:39:00.862Z,992.72
2016-11-24T11:40:00.894Z,992.78
2016-11-24T11:41:00.923Z,992.77
2016-11-24T11:42:00.955Z,992.73
2016-11-24T11:43:00.985Z,992.75
2016-11-24T11:44:01.013Z,992.82
2016-11-24T11:45:01.038Z,992.84
2016-11-24T11:46:01.068Z,992.78
2016-11-24T11:47:01.100Z,992.78
2016-11-24T11:48:01.129Z,992.84
2016-11-24T11:49:01.154Z,992.84
2016-11-24T11:50:01.183Z,992.83
2016-11-24T11:51:01.211Z,992.84
2016-11-24T11:52:01.241Z,992.75
2016-11-24T11:53:01.265Z,992.8
2016-11-24T11:54:01.297Z,992.83
2016-11-24T11:55:01.326Z,992.78
2016-11-24T11:56:01.355Z,992.8
2016-11-24T11:57:01.382Z,992.73
2016-11-24T11:58:01.408Z,992.8
2016-11-24T11:59:01.436Z,992.66
2016-11-24T12:00:01.466Z,992.69
2016-11-24T12:01:01.494Z,992.72
2016-11-24T12:02:01.530Z,992.61
2016-11-24T12:03:01.556Z,992.53
2016-11-24T12:04:01.581Z,992.6
2016-11-24T12:05:01.610Z,992.6
2016-11-24T12:06:01.641Z,992.64
2016-11-24T12:07:01.671Z,992.74
2016-11-24T12:08:01.694Z,992.7
2016-11-24T12:09:01.728Z,992.64
2016-11-24T12:10:01.753Z,992.67
2016-11-24T12:11:01.782Z,992.74
2016-11-24T12:12:01.806Z,992.6
2016-11-24T12:13:01.844Z,992.77
2016-11-24T12:14:01.868Z,992.76
2016-11-24T12:15:01.898Z,992.8
2016-11-24T12:16:01.926Z,992.83
2016-11-24T12:17:01.953Z,992.82
2016-11-24T12:18:01.984Z,992.86
2016-11-24T12:19:02.013Z,992.94
2016-11-24T12:20:02.041Z,992.9
2016-11-24T12:21:02.066Z,992.9
2016-11-24T12:22:02.094Z,992.9
2016-11-24T12:23:02.124Z,992.88
2016-11-24T12:24:02.154Z,992.87
2016-11-24T12:25:02.189Z,992.84
2016-11-24T12:26:02.213Z,992.87
2016-11-24T12:27:02.242Z,992.86
2016-11-24T12:28:02.273Z,992.85
2016-11-24T12:29:02.299Z,992.84
2016-11-24T12:30:02.329Z,992.83
2016-11-24T12:31:02.357Z,992.79